createdAt,value
2022-08-14T00:02:31.294Z,10.63
2022-08-14T00:05:01.641Z,12.02
2022-08-14T00:07:31.510Z,10.43
2022-08-14T00:10:50.100Z,10.82
2022-08-14T00:12:57.041Z,10.88
2022-08-14T00:15:37.718Z,11.75
2022-08-14T00:19:05.418Z,10.98
2022-08-14T00:21:11.278Z,10.88
2022-08-14T00:26:23.101Z,11.82
2022-08-14T00:28:54.179Z,12.10
2022-08-14T00:31:35.041Z,11.20
2022-08-14T00:34:36.920Z,11.50
2022-08-14T00:37:06.688Z,11.40
2022-08-14T00:39:37.800Z,11.63
2022-08-14T00:42:21.172Z,12.25
2022-08-14T00:44:58.244Z,10.27
2022-08-14T00:47:28.437Z,12.23
2022-08-14T00:50:02.425Z,11.40
2022-08-14T00:52:32.545Z,11.15
2022-08-14T00:55:03.294Z,12.13
2022-08-14T00:57:35.486Z,12.25
2022-08-14T01:00:34.089Z,11.35
2022-08-14T01:03:00.414Z,11.55
2022-08-14T01:05:51.195Z,11.95
2022-08-14T01:08:57.526Z,12.45
2022-08-14T01:11:19.523Z,12.18
2022-08-14T01:13:55.716Z,11.50
2022-08-14T01:16:31.860Z,11.73
2022-08-14T01:19:21.521Z,12.35
2022-08-14T01:21:53.763Z,12.13
2022-08-14T01:24:30.613Z,12.07
2022-08-14T01:27:07.224Z,13.82
2022-08-14T01:29:58.337Z,12.02
2022-08-14T01:32:27.986Z,12.15
2022-08-14T01:35:19.762Z,12.65
2022-08-14T01:37:56.251Z,11.85
2022-08-14T01:40:36.956Z,11.93
2022-08-14T01:43:18.833Z,12.13
2022-08-14T01:45:57.455Z,12.50
2022-08-14T01:48:37.062Z,12.82
2022-08-14T01:51:19.045Z,12.65
2022-08-14T01:53:55.484Z,13.52
2022-08-14T01:56:37.218Z,12.85
2022-08-14T01:59:20.031Z,11.80
2022-08-14T02:01:58.487Z,13.20
2022-08-14T02:04:40.573Z,12.45
2022-08-14T02:07:34.886Z,13.70
2022-08-14T02:10:15.861Z,12.73
2022-08-14T02:12:48.827Z,11.98
2022-08-14T02:15:25.852Z,12.80
2022-08-14T02:17:56.296Z,11.57
2022-08-14T02:20:26.401Z,12.38
2022-08-14T02:22:56.248Z,13.38
2022-08-14T02:25:29.883Z,12.68
2022-08-14T02:28:22.754Z,12.43
2022-08-14T02:30:52.395Z,14.25
2022-08-14T02:33:23.336Z,13.15
2022-08-14T02:36:05.172Z,11.77
2022-08-14T02:38:44.871Z,11.77
2022-08-14T02:41:16.122Z,14.13
2022-08-14T02:43:48.652Z,12.30
2022-08-14T02:46:20.357Z,12.73
2022-08-14T02:49:03.089Z,12.77
2022-08-14T02:51:36.973Z,12.45
2022-08-14T02:54:08.638Z,13.25
2022-08-14T02:57:14.262Z,13.00
2022-08-14T02:59:33.833Z,12.32
2022-08-14T03:02:05.555Z,12.63
2022-08-14T03:04:36.020Z,12.75
2022-08-14T03:07:08.093Z,14.15
2022-08-14T03:10:24.318Z,13.10
2022-08-14T03:12:32.864Z,12.77
2022-08-14T03:15:14.006Z,14.38
2022-08-14T03:17:57.304Z,13.65
2022-08-14T03:20:29.198Z,12.25
2022-08-14T03:23:03.252Z,12.93
2022-08-14T03:25:37.719Z,12.68
2022-08-14T03:28:14.891Z,13.55
2022-08-14T03:31:00.237Z,13.60
2022-08-14T03:33:38.354Z,13.15
2022-08-14T03:37:51.280Z,13.93
2022-08-14T03:39:10.774Z,13.27
2022-08-14T03:41:46.380Z,12.82
2022-08-14T03:45:27.495Z,13.70
2022-08-14T03:47:08.362Z,13.68
2022-08-14T03:49:42.278Z,12.07
2022-08-14T03:52:37.711Z,12.93
2022-08-14T03:55:06.668Z,12.05
2022-08-14T04:00:27.651Z,12.15
2022-08-14T04:03:04.807Z,13.65
2022-08-14T04:05:43.294Z,12.48
2022-08-14T04:08:29.481Z,12.73
2022-08-14T04:11:02.914Z,12.40
2022-08-14T04:13:41.874Z,15.10
2022-08-14T04:16:18.068Z,13.48
2022-08-14T04:18:50.833Z,13.30
2022-08-14T04:21:24.541Z,13.73
2022-08-14T04:23:57.846Z,13.15
2022-08-14T04:26:42.437Z,14.70
2022-08-14T04:29:15.428Z,15.13
2022-08-14T04:33:02.249Z,14.50
2022-08-14T04:34:41.925Z,16.38
2022-08-14T04:37:29.632Z,15.50
2022-08-14T04:40:15.041Z,15.57
2022-08-14T04:43:02.812Z,15.68
2022-08-14T04:45:40.918Z,14.57
2022-08-14T04:48:39.818Z,15.05
2022-08-14T04:51:05.959Z,16.30
2022-08-14T04:53:43.309Z,16.50
2022-08-14T04:56:30.975Z,15.70
2022-08-14T04:59:10.463Z,15.90
2022-08-14T05:01:48.937Z,14.73
2022-08-14T05:04:24.780Z,14.98
2022-08-14T05:06:55.641Z,14.32
2022-08-14T05:09:29.312Z,14.07
2022-08-14T05:13:13.043Z,14.35
2022-08-14T05:14:54.713Z,14.02
2022-08-14T05:17:28.670Z,14.75
2022-08-14T05:21:05.097Z,15.20
2022-08-14T05:25:34.229Z,13.90
2022-08-14T05:28:12.440Z,14.03
2022-08-14T05:30:47.478Z,14.80
2022-08-14T05:33:19.772Z,14.27
2022-08-14T05:35:52.077Z,13.75
2022-08-14T05:38:31.354Z,14.13
2022-08-14T05:41:03.167Z,16.13
2022-08-14T05:43:41.278Z,14.88
2022-08-14T05:46:15.358Z,14.43
2022-08-14T05:48:49.183Z,15.32
2022-08-14T05:54:00.113Z,14.23
2022-08-14T05:56:31.387Z,14.02
2022-08-14T05:59:03.115Z,16.48
2022-08-14T06:01:32.951Z,14.48
2022-08-14T06:04:04.637Z,14.63
2022-08-14T06:06:38.364Z,13.52
2022-08-14T06:11:40.054Z,19.65
2022-08-14T06:14:21.185Z,15.68
2022-08-14T06:16:54.269Z,19.42
2022-08-14T06:19:24.057Z,17.88
2022-08-14T06:21:58.321Z,21.52
2022-08-14T06:24:30.764Z,17.48
2022-08-14T06:27:10.142Z,18.90
2022-08-14T06:29:40.969Z,16.98
2022-08-14T06:32:38.156Z,16.27
2022-08-14T06:35:02.971Z,15.70
2022-08-14T06:37:45.341Z,14.77
2022-08-14T06:40:26.665Z,14.93
2022-08-14T06:43:03.342Z,13.63
2022-08-14T06:45:34.173Z,14.27
2022-08-14T06:48:05.953Z,14.40
2022-08-14T06:50:36.499Z,13.48
2022-08-14T06:53:08.356Z,14.98
2022-08-14T06:55:40.792Z,13.38
2022-08-14T06:58:29.459Z,13.35
2022-08-14T07:01:27.064Z,14.30
2022-08-14T07:04:24.038Z,14.35
2022-08-14T07:06:59.507Z,13.63
2022-08-14T07:09:43.786Z,13.13
2022-08-14T07:12:54.637Z,13.77
2022-08-14T07:15:12.780Z,13.88
2022-08-14T07:17:47.226Z,12.88
2022-08-14T07:20:31.412Z,13.95
2022-08-14T07:23:07.718Z,12.57
2022-08-14T07:25:42.294Z,13.27
2022-08-14T07:28:20.513Z,13.20
2022-08-14T07:30:52.121Z,13.27
2022-08-14T07:33:28.909Z,12.63
2022-08-14T07:36:02.227Z,13.05
2022-08-14T07:38:37.927Z,12.27
2022-08-14T07:41:14.812Z,12.10
2022-08-14T07:43:55.129Z,13.45
2022-08-14T07:46:29.279Z,12.00
2022-08-14T07:49:01.259Z,12.50
2022-08-14T07:51:50.745Z,12.68
2022-08-14T07:54:23.580Z,12.05
2022-08-14T07:57:06.261Z,12.98
2022-08-14T07:59:41.349Z,12.70
2022-08-14T08:02:18.921Z,14.60
2022-08-14T08:04:54.593Z,13.70
2022-08-14T08:07:30.072Z,12.40
2022-08-14T08:10:46.568Z,13.35
2022-08-14T08:13:24.230Z,12.93
2022-08-14T08:15:57.349Z,12.25
2022-08-14T08:18:29.506Z,12.82
2022-08-14T08:21:01.366Z,13.40
2022-08-14T08:23:43.597Z,12.38
2022-08-14T08:26:21.344Z,12.77
2022-08-14T08:28:59.157Z,13.02
2022-08-14T08:31:32.611Z,13.77
2022-08-14T08:34:06.282Z,13.95
2022-08-14T08:36:42.583Z,12.50
2022-08-14T08:39:21.814Z,12.98
2022-08-14T08:41:53.620Z,13.63
2022-08-14T08:44:34.305Z,14.30
2022-08-14T08:47:07.794Z,12.60
2022-08-14T08:52:25.092Z,13.38
2022-08-14T08:55:04.439Z,14.57
2022-08-14T08:57:37.581Z,14.35
2022-08-14T09:00:24.510Z,14.05
2022-08-14T09:02:59.370Z,14.88
2022-08-14T09:08:31.194Z,14.02
2022-08-14T09:11:19.138Z,14.07
2022-08-14T09:13:52.486Z,14.02
2022-08-14T09:16:26.512Z,13.23
2022-08-14T09:18:57.021Z,14.30
2022-08-14T09:21:31.203Z,13.23
2022-08-14T09:24:29.134Z,13.32
2022-08-14T09:26:53.027Z,14.02
2022-08-14T09:29:24.455Z,14.40
2022-08-14T09:32:04.479Z,14.68
2022-08-14T09:35:04.667Z,15.45
2022-08-14T09:37:55.140Z,14.20
2022-08-14T09:40:38.787Z,13.68
2022-08-14T09:43:22.403Z,15.15
2022-08-14T09:48:29.888Z,12.88
2022-08-14T09:54:17.964Z,13.27
2022-08-14T09:56:30.917Z,13.50
2022-08-14T09:59:15.294Z,13.90
2022-08-14T10:01:52.496Z,13.88
2022-08-14T10:04:35.000Z,15.10
2022-08-14T10:07:08.543Z,14.73
2022-08-14T10:09:57.628Z,16.00
2022-08-14T10:12:45.153Z,15.77
2022-08-14T10:15:20.723Z,15.13
2022-08-14T10:17:53.266Z,15.07
2022-08-14T10:20:41.084Z,16.60
2022-08-14T10:23:43.405Z,14.57
2022-08-14T10:26:23.148Z,15.52
2022-08-14T10:29:18.497Z,13.82
2022-08-14T10:31:59.231Z,14.35
2022-08-14T10:34:35.673Z,13.88
2022-08-14T10:37:14.549Z,13.35
2022-08-14T10:40:05.829Z,12.45
2022-08-14T10:42:43.901Z,11.93
2022-08-14T10:45:24.971Z,12.02
2022-08-14T10:48:07.941Z,11.07
2022-08-14T10:50:46.554Z,11.07
2022-08-14T10:53:28.119Z,10.95
2022-08-14T10:56:00.848Z,10.85
2022-08-14T10:58:35.001Z,10.57
2022-08-14T11:01:08.032Z,11.60
2022-08-14T11:03:55.823Z,9.10
2022-08-14T11:06:27.370Z,10.65
2022-08-14T11:08:59.106Z,10.63
2022-08-14T11:11:37.086Z,10.73
2022-08-14T11:14:09.297Z,10.98
2022-08-14T11:16:40.989Z,11.35
2022-08-14T11:19:20.731Z,11.13
2022-08-14T11:21:56.195Z,11.55
2022-08-14T11:24:54.092Z,12.15
2022-08-14T11:27:25.769Z,12.82
2022-08-14T11:30:50.315Z,13.57
2022-08-14T11:32:57.084Z,12.30
2022-08-14T11:35:44.302Z,13.57
2022-08-14T11:38:21.426Z,12.73
2022-08-14T11:40:52.794Z,12.57
2022-08-14T11:43:29.091Z,11.57
2022-08-14T11:46:03.901Z,12.60
2022-08-14T11:49:03.860Z,12.13
2022-08-14T11:51:53.537Z,11.43
2022-08-14T11:54:33.902Z,12.63
2022-08-14T11:57:07.118Z,12.95
2022-08-14T11:59:38.513Z,10.68
2022-08-14T12:03:01.521Z,12.45
2022-08-14T12:05:09.206Z,12.10
2022-08-14T12:07:49.742Z,11.73
2022-08-14T12:10:26.056Z,11.35
2022-08-14T12:13:17.824Z,11.60
2022-08-14T12:15:58.052Z,11.43
2022-08-14T12:18:34.470Z,13.18
2022-08-14T12:21:15.825Z,13.20
2022-08-14T12:24:03.604Z,11.38
2022-08-14T12:26:40.741Z,12.90
2022-08-14T12:29:14.497Z,15.38
2022-08-14T12:31:47.087Z,13.65
2022-08-14T12:34:20.494Z,13.68
2022-08-14T12:37:04.139Z,14.75
2022-08-14T12:39:40.196Z,14.55
2022-08-14T12:42:11.888Z,14.20
2022-08-14T12:45:03.921Z,12.90
2022-08-14T12:47:35.140Z,12.70
2022-08-14T12:50:05.956Z,13.40
2022-08-14T12:52:45.355Z,13.82
2022-08-14T12:56:18.812Z,13.93
2022-08-14T12:58:50.090Z,14.25
2022-08-14T13:03:52.736Z,13.40
2022-08-14T13:06:28.319Z,14.50
2022-08-14T13:08:59.986Z,12.95
2022-08-14T13:11:40.891Z,12.70
2022-08-14T13:14:17.173Z,13.75
2022-08-14T13:16:50.295Z,12.82
2022-08-14T13:19:21.216Z,14.43
2022-08-14T13:22:04.762Z,14.85
2022-08-14T13:24:39.788Z,14.00
2022-08-14T13:27:12.444Z,13.93
2022-08-14T13:29:43.959Z,12.30
2022-08-14T13:32:19.516Z,13.13
2022-08-14T13:34:52.758Z,12.18
2022-08-14T13:37:22.927Z,13.13
2022-08-14T13:39:56.708Z,11.57
2022-08-14T13:42:30.647Z,10.77
2022-08-14T13:45:03.699Z,10.88
2022-08-14T13:47:35.499Z,9.13
2022-08-14T13:50:09.782Z,7.75
2022-08-14T13:52:52.868Z,7.63
2022-08-14T13:55:28.562Z,7.35
2022-08-14T13:58:04.324Z,7.68
2022-08-14T14:00:52.854Z,7.63
2022-08-14T14:03:30.370Z,8.27
2022-08-14T14:06:03.896Z,9.77
2022-08-14T14:08:43.609Z,9.35
2022-08-14T14:11:24.036Z,9.52
2022-08-14T14:13:56.327Z,8.57
2022-08-14T14:16:30.804Z,8.38
2022-08-14T14:19:10.443Z,9.43
2022-08-14T14:21:41.795Z,10.40
2022-08-14T14:24:15.544Z,11.95
2022-08-14T14:26:49.911Z,10.82
2022-08-14T14:29:23.969Z,10.50
2022-08-14T14:31:58.753Z,10.90
2022-08-14T14:34:34.141Z,10.07
2022-08-14T14:37:06.161Z,10.27
2022-08-14T14:39:38.026Z,10.63
2022-08-14T14:42:32.429Z,10.82
2022-08-14T14:45:14.252Z,10.88
2022-08-14T14:47:49.013Z,10.93
2022-08-14T14:50:22.387Z,11.13
2022-08-14T14:53:12.250Z,10.38
2022-08-14T14:56:46.853Z,11.25
2022-08-14T14:58:37.983Z,10.88
2022-08-14T15:01:10.348Z,10.70
2022-08-14T15:03:43.256Z,11.57
2022-08-14T15:06:17.565Z,11.82
2022-08-14T15:08:55.595Z,13.02
2022-08-14T15:11:30.394Z,12.77
2022-08-14T15:14:02.744Z,11.95
2022-08-14T15:16:52.663Z,13.73
2022-08-14T15:19:23.596Z,13.20
2022-08-14T15:21:54.890Z,13.57
2022-08-14T15:24:26.923Z,12.65
2022-08-14T15:26:58.666Z,12.80
2022-08-14T15:29:28.776Z,12.40
2022-08-14T15:32:01.099Z,12.70
2022-08-14T15:34:45.969Z,11.88
2022-08-14T15:37:23.860Z,12.18
2022-08-14T15:39:54.025Z,11.95
2022-08-14T15:42:25.113Z,11.02
2022-08-14T15:45:01.406Z,10.80
2022-08-14T15:47:33.248Z,10.75
2022-08-14T15:50:08.618Z,12.23
2022-08-14T15:52:42.963Z,11.30
2022-08-14T15:55:16.254Z,10.82
2022-08-14T15:58:01.357Z,14.23
2022-08-14T16:00:51.683Z,13.13
2022-08-14T16:03:27.144Z,12.27
2022-08-14T16:06:11.194Z,13.07
2022-08-14T16:08:58.954Z,11.63
2022-08-14T16:11:33.270Z,12.85
2022-08-14T16:16:51.642Z,11.70
2022-08-14T16:19:31.102Z,11.95
2022-08-14T16:22:57.539Z,11.25
2022-08-14T16:25:01.916Z,11.90
2022-08-14T16:27:41.117Z,11.15
2022-08-14T16:30:20.563Z,11.40
2022-08-14T16:32:57.812Z,11.48
2022-08-14T16:35:43.207Z,11.45
2022-08-14T16:38:45.374Z,10.18
2022-08-14T16:41:27.608Z,10.55
2022-08-14T16:44:01.949Z,10.52
2022-08-14T16:46:35.280Z,11.55
2022-08-14T16:49:07.326Z,10.77
2022-08-14T16:51:39.599Z,10.88
2022-08-14T16:54:34.324Z,10.32
2022-08-14T16:57:17.062Z,11.45
2022-08-14T16:59:52.607Z,11.93
2022-08-14T17:02:35.591Z,11.95
2022-08-14T17:05:22.941Z,11.93
2022-08-14T17:08:42.568Z,11.95
2022-08-14T17:11:11.031Z,11.25
2022-08-14T17:13:58.445Z,11.20
2022-08-14T17:16:36.941Z,9.30
2022-08-14T17:19:09.836Z,10.82
2022-08-14T17:21:47.550Z,10.68
2022-08-14T17:24:56.203Z,10.18
2022-08-14T17:27:10.226Z,11.25
2022-08-14T17:32:55.518Z,11.35
2022-08-14T17:35:57.973Z,10.80
2022-08-14T17:41:32.621Z,13.10
2022-08-14T17:44:34.359Z,11.63
2022-08-14T17:47:14.549Z,11.10
2022-08-14T17:49:52.061Z,11.52
2022-08-14T17:52:34.557Z,11.27
2022-08-14T17:55:09.878Z,10.77
2022-08-14T17:57:43.913Z,11.02
2022-08-14T18:00:17.813Z,11.70
2022-08-14T18:02:51.182Z,11.38
2022-08-14T18:06:08.589Z,10.93
2022-08-14T18:08:32.203Z,10.98
2022-08-14T18:11:05.237Z,12.02
2022-08-14T18:13:50.182Z,13.00
2022-08-14T18:16:22.806Z,11.57
2022-08-14T18:18:54.995Z,12.85
2022-08-14T18:21:56.561Z,11.68
2022-08-14T18:24:28.343Z,12.10
2022-08-14T18:27:08.601Z,12.68
2022-08-14T18:29:54.751Z,12.85
2022-08-14T18:32:54.670Z,11.43
2022-08-14T18:35:46.323Z,11.88
2022-08-14T18:38:45.953Z,11.73
2022-08-14T18:41:36.681Z,11.32
2022-08-14T18:44:10.355Z,10.57
2022-08-14T18:47:14.933Z,9.85
2022-08-14T18:50:27.948Z,10.57
2022-08-14T18:53:07.199Z,10.52
2022-08-14T18:55:53.762Z,10.52
2022-08-14T18:58:29.511Z,9.63
2022-08-14T19:01:06.083Z,10.20
2022-08-14T19:03:56.170Z,10.00
2022-08-14T19:06:56.437Z,9.88
2022-08-14T19:09:53.760Z,10.32
2022-08-14T19:13:04.931Z,9.93
2022-08-14T19:15:37.513Z,9.90
2022-08-14T19:18:25.858Z,9.93
2022-08-14T19:21:00.236Z,10.45
2022-08-14T19:23:42.239Z,10.73
2022-08-14T19:26:35.875Z,9.90
2022-08-14T19:29:24.098Z,11.07
2022-08-14T19:31:56.178Z,10.35
2022-08-14T19:34:52.198Z,10.48
2022-08-14T19:37:48.437Z,11.23
2022-08-14T19:40:32.228Z,10.77
2022-08-14T19:43:06.642Z,11.73
2022-08-14T19:45:40.047Z,10.95
2022-08-14T19:48:15.586Z,11.68
2022-08-14T19:50:47.236Z,10.60
2022-08-14T19:53:18.408Z,10.63
2022-08-14T19:55:59.765Z,11.20
2022-08-14T19:58:54.712Z,10.23
2022-08-14T20:01:37.270Z,11.45
2022-08-14T20:04:45.134Z,10.25
2022-08-14T20:07:04.107Z,10.10
2022-08-14T20:11:08.343Z,8.80
2022-08-14T20:12:35.266Z,10.50
2022-08-14T20:15:15.441Z,9.10
2022-08-14T20:17:52.986Z,10.32
2022-08-14T20:20:31.732Z,9.85
2022-08-14T20:23:11.110Z,9.88
2022-08-14T20:25:55.888Z,9.38
2022-08-14T20:28:35.791Z,11.30
2022-08-14T20:31:19.458Z,10.77
2022-08-14T20:34:06.984Z,10.68
2022-08-14T20:36:40.032Z,11.13
2022-08-14T20:39:15.668Z,11.03
2022-08-14T20:41:49.016Z,10.02
2022-08-14T20:44:39.699Z,10.23
2022-08-14T20:47:17.105Z,11.35
2022-08-14T20:49:47.359Z,10.45
2022-08-14T20:52:19.972Z,10.95
2022-08-14T20:54:51.881Z,10.95
2022-08-14T20:57:22.488Z,10.68
2022-08-14T20:59:56.859Z,10.30
2022-08-14T21:02:46.225Z,10.38
2022-08-14T21:05:33.389Z,10.77
2022-08-14T21:08:07.863Z,12.13
2022-08-14T21:10:44.289Z,11.52
2022-08-14T21:14:08.624Z,10.00
2022-08-14T21:16:25.910Z,9.07
2022-08-14T21:19:02.135Z,10.00
2022-08-14T21:21:40.645Z,10.20
2022-08-14T21:24:39.679Z,10.35
2022-08-14T21:27:12.847Z,11.13
2022-08-14T21:29:53.612Z,12.07
2022-08-14T21:32:47.093Z,12.48
2022-08-14T21:35:22.997Z,14.07
2022-08-14T21:37:53.888Z,14.38
2022-08-14T21:40:40.283Z,14.75
2022-08-14T21:43:18.229Z,14.95
2022-08-14T21:45:52.997Z,15.32
2022-08-14T21:48:26.372Z,15.77
2022-08-14T21:51:53.866Z,17.15
2022-08-14T21:54:00.285Z,17.75
2022-08-14T21:56:38.763Z,14.98
2022-08-14T21:59:17.511Z,16.02
2022-08-14T22:02:00.097Z,16.95
2022-08-14T22:04:40.520Z,16.23
2022-08-14T22:07:17.393Z,16.30
2022-08-14T22:09:55.193Z,16.15
2022-08-14T22:12:45.248Z,17.10
2022-08-14T22:15:21.989Z,17.83
2022-08-14T22:17:54.104Z,16.80
2022-08-14T22:20:28.163Z,15.38
2022-08-14T22:23:04.335Z,16.48
2022-08-14T22:25:41.289Z,18.23
2022-08-14T22:28:19.385Z,17.27
2022-08-14T22:30:55.078Z,16.48
2022-08-14T22:33:31.118Z,16.60
2022-08-14T22:36:25.055Z,16.95
2022-08-14T22:38:57.427Z,15.93
2022-08-14T22:41:31.504Z,15.75
2022-08-14T22:44:08.349Z,15.98
2022-08-14T22:46:43.455Z,16.67
2022-08-14T22:50:28.514Z,17.38
2022-08-14T22:52:32.559Z,16.75
2022-08-14T22:54:59.964Z,15.90
2022-08-14T22:57:37.126Z,17.55
2022-08-14T23:00:16.377Z,16.30
2022-08-14T23:02:46.797Z,16.77
2022-08-14T23:05:17.728Z,17.50
2022-08-14T23:08:59.297Z,16.05
2022-08-14T23:10:59.713Z,17.67
2022-08-14T23:13:30.629Z,15.88
2022-08-14T23:16:02.030Z,15.77
2022-08-14T23:18:33.254Z,16.90
2022-08-14T23:21:03.364Z,16.42
2022-08-14T23:23:34.458Z,17.45
2022-08-14T23:26:48.386Z,16.80
2022-08-14T23:29:03.059Z,16.35
2022-08-14T23:31:35.803Z,18.50
2022-08-14T23:34:07.730Z,19.48
2022-08-14T23:36:54.224Z,17.67
2022-08-14T23:39:30.040Z,17.77
2022-08-14T23:42:08.490Z,19.88
2022-08-14T23:44:39.740Z,19.85
2022-08-14T23:47:26.212Z,18.98
2022-08-14T23:50:03.659Z,19.63
2022-08-14T23:52:56.361Z,18.67
2022-08-14T23:55:35.291Z,19.08
2022-08-14T23:58:07.825Z,19.48
